M I D A S
Marine Information and Data Acquisition System
Tripno 1678 of the Zeeleeuw from 2009-04-21 08:05:11 to 2009-04-21 13:59:22
Back to CruiseResearch ActivitiesStationsMapUnderway DataData graphs

EquipmentUnitsComment
TimeDGPSUTC
LatitudeDGPSDM.mWGS84
LongitudeDGPSDM.mWGS84
HeadingGyrodeg 
SOGDGPSknotsSpeed over ground
COGDGPSdegCourse over ground
DepthEcho soundermeters200 kHz
Missing or incorrect values are displayed as -999
Navigation data collected by the RV Zeeleeuw from 2009-04-21 07:56:58 to 2009-04-21 14:07:10
Time Latitude Longitude Heading SOG COG Depth
2009-04-21 07:58:04 51°13.675 2°55.908 110.1 2.8 290 -999
2009-04-21 07:59:04 51°13.69 2°55.824 105.2 3.4 285 -999
2009-04-21 08:00:03 51°13.699 2°55.783 120.9 2.6 299 12.8
2009-04-21 08:01:04 51°13.746 2°55.708 146.8 4.3 324 -999
2009-04-21 08:02:04 51°13.82 2°55.652 164.5 5.2 342 -999
2009-04-21 08:03:04 51°13.892 2°55.632 187.9 3.3 1 -999
2009-04-21 08:04:02 51°13.913 2°55.626 230.9 1.5 249 11.9
2009-04-21 08:05:02 51°13.912 2°55.628 278.8 1 90 -999
2009-04-21 08:06:03 51°13.924 2°55.61 320.7 2 320 4.8
2009-04-21 08:07:02 51°14.004 2°55.532 331.8 8.2 331 12.1
2009-04-21 08:08:01 51°14.129 2°55.414 331.3 9.2 328 12
2009-04-21 08:09:00 51°14.256 2°55.28 327.9 9.3 325 12
2009-04-21 08:10:01 51°14.374 2°55.111 316.8 9.6 313 11.7
2009-04-21 08:11:00 51°14.477 2°54.909 302.7 10.3 300 11.9
2009-04-21 08:12:01 51°14.547 2°54.653 287.2 10.6 289 12
2009-04-21 08:13:01 51°14.61 2°54.39 292.1 10.7 293 12.3
2009-04-21 08:14:01 51°14.659 2°54.115 283.2 10.8 285 12.5
2009-04-21 08:15:01 51°14.692 2°53.828 277.1 11.1 277 12.1
2009-04-21 08:16:01 51°14.721 2°53.535 279.3 11.2 279 11.7
2009-04-21 08:17:01 51°14.748 2°53.24 277.7 11.2 277 11
2009-04-21 08:18:01 51°14.774 2°52.944 279 11.3 281 11.2
2009-04-21 08:19:01 51°14.801 2°52.65 278.4 11.1 278 11.4
2009-04-21 08:20:01 51°14.83 2°52.357 280.4 11.2 281 11.8
2009-04-21 08:21:01 51°14.859 2°52.064 278.9 11.2 279 12
2009-04-21 08:22:01 51°14.888 2°51.772 280.7 11.2 281 12.4
2009-04-21 08:23:01 51°14.921 2°51.479 280.1 11.3 282 13
2009-04-21 08:24:01 51°14.953 2°51.181 279.8 11.4 280 13.4
2009-04-21 08:25:01 51°14.98 2°50.881 277.5 11.4 278 13.8
2009-04-21 08:26:01 51°15.009 2°50.596 278.8 10.3 279 14.1
2009-04-21 08:27:01 51°15.066 2°50.449 326.2 4.5 336 14.5
2009-04-21 08:28:01 51°15.131 2°50.476 35.5 4.2 45 14.6
2009-04-21 08:29:01 51°15.155 2°50.551 88.5 1.9 76 14.6
2009-04-21 08:30:01 51°15.157 2°50.589 116.8 1.2 92 14.6
2009-04-21 08:31:01 51°15.155 2°50.621 125.3 1.2 93 14.5
2009-04-21 08:32:01 51°15.153 2°50.651 119.3 1.1 97 14.5
2009-04-21 08:33:01 51°15.152 2°50.681 114.8 1.1 92 14.6
2009-04-21 08:34:01 51°15.153 2°50.71 110.4 1.2 86 14.5
2009-04-21 08:35:01 51°15.151 2°50.748 115 2.6 103 14.4
2009-04-21 08:36:01 51°15.109 2°50.798 193.7 3.1 184 14.2
2009-04-21 08:37:01 51°15.074 2°50.732 251.1 3.9 250 14.4
2009-04-21 08:38:01 51°15.063 2°50.637 259.3 3.4 262 14.4
2009-04-21 08:39:01 51°15.048 2°50.552 249 3.4 251 14.5
2009-04-21 08:40:01 51°15.041 2°50.462 263 3.4 267 14.4
2009-04-21 08:41:01 51°15.038 2°50.373 261.4 3.3 264 14.7
2009-04-21 08:42:01 51°15.018 2°50.296 237.6 3.2 235 14.6
2009-04-21 08:43:01 51°14.979 2°50.238 225.7 3.3 224 14.5
2009-04-21 08:44:01 51°14.94 2°50.177 230.2 3.2 226 14.6
2009-04-21 08:45:01 51°14.902 2°50.115 230.2 3.3 226 14.6
2009-04-21 08:46:01 51°14.865 2°50.053 230.4 3.3 225 14.5
2009-04-21 08:47:01 51°14.827 2°49.992 229.6 3.2 226 14.5
2009-04-21 08:48:01 51°14.788 2°49.935 228.7 3.1 224 14.4
2009-04-21 08:49:01 51°14.749 2°49.877 229.4 3.4 222 14.3
2009-04-21 08:50:01 51°14.709 2°49.811 229.7 3.6 225 14.3
2009-04-21 08:51:01 51°14.666 2°49.744 229.5 3.6 225 14.3
2009-04-21 08:52:01 51°14.624 2°49.678 229.1 3.6 224 14.3
2009-04-21 08:53:01 51°14.582 2°49.611 229.8 3.5 226 14.2
2009-04-21 08:54:01 51°14.54 2°49.544 229.4 3.6 226 14
2009-04-21 08:55:01 51°14.497 2°49.476 229.2 3.7 226 14
2009-04-21 08:56:01 51°14.454 2°49.409 229.3 3.6 226 13.9
2009-04-21 08:57:00 51°14.412 2°49.344 229.6 3.6 225 13.9
2009-04-21 08:58:01 51°14.369 2°49.279 229.4 3.5 222 13.9
2009-04-21 08:59:01 51°14.328 2°49.216 229.5 3.5 224 13.9
2009-04-21 09:00:01 51°14.286 2°49.153 229.1 3.5 223 13.8
2009-04-21 09:01:01 51°14.244 2°49.09 228.7 3.4 224 13.7
2009-04-21 09:02:01 51°14.202 2°49.026 229.6 3.5 225 13.7
2009-04-21 09:03:01 51°14.161 2°48.962 229.4 3.5 224 13.7
2009-04-21 09:04:01 51°14.12 2°48.898 231.3 3.4 227 13.7
2009-04-21 09:05:01 51°14.086 2°48.828 240.9 3.2 243 13.6
2009-04-21 09:06:00 51°14.069 2°48.748 250.8 3.2 255 13.7
2009-04-21 09:07:01 51°14.059 2°48.664 258.9 3.2 264 13.5
2009-04-21 09:08:00 51°14.064 2°48.582 274.3 3.3 285 13.5
2009-04-21 09:09:01 51°14.086 2°48.513 289.5 2.3 309 13.8
2009-04-21 09:10:01 51°14.107 2°48.485 298.9 1.2 329 13.8
2009-04-21 09:11:01 51°14.122 2°48.48 298.8 0.8 -999 13.9
2009-04-21 09:12:01 51°14.134 2°48.483 301.6 0.8 12 13.8
2009-04-21 09:13:00 51°14.163 2°48.48 342.3 3 2 13.8
2009-04-21 09:14:01 51°14.262 2°48.492 2.4 8 9 13.8
2009-04-21 09:15:01 51°14.423 2°48.567 16.7 11.9 20 14
2009-04-21 09:16:01 51°14.618 2°48.682 19.7 12.6 20 14.4
2009-04-21 09:17:01 51°14.815 2°48.804 18.3 12.8 19 14.6
2009-04-21 09:18:01 51°15.018 2°48.904 14.6 12.8 17 14.8
2009-04-21 09:19:01 51°15.221 2°49.007 15.1 12.9 18 15.1
2009-04-21 09:20:01 51°15.425 2°49.113 15.1 12.9 18 15.1
2009-04-21 09:21:01 51°15.628 2°49.213 11.8 12.7 13 13.4
2009-04-21 09:22:01 51°15.836 2°49.286 9 12.8 12 12.8
2009-04-21 09:23:01 51°16.042 2°49.352 6.4 12.5 9 13.5
2009-04-21 09:24:01 51°16.248 2°49.403 6 12.6 9 14.3
2009-04-21 09:25:01 51°16.456 2°49.457 6.5 12.8 10 16.2
2009-04-21 09:26:01 51°16.667 2°49.516 5.9 12.8 10 15.7
2009-04-21 09:27:01 51°16.877 2°49.57 6.6 12.7 9 11.5
2009-04-21 09:28:01 51°17.086 2°49.617 4.7 12.7 6 13.2
2009-04-21 09:29:01 51°17.294 2°49.656 4.8 12.6 7 14.5
2009-04-21 09:30:01 51°17.502 2°49.7 5.4 12.6 8 15.1
2009-04-21 09:31:01 51°17.71 2°49.752 7.2 12.6 9 15.4
2009-04-21 09:32:01 51°17.919 2°49.806 7 12.8 9 15.7
2009-04-21 09:33:01 51°18.129 2°49.868 9.8 12.8 12 16
2009-04-21 09:34:01 51°18.334 2°49.962 14.4 12.7 16 16.1
2009-04-21 09:35:01 51°18.538 2°50.053 12.2 12.7 15 15.9
2009-04-21 09:36:01 51°18.741 2°50.146 13.9 12.7 15 15.8
2009-04-21 09:37:01 51°18.943 2°50.238 13.9 12.6 16 15.3
2009-04-21 09:38:01 51°19.145 2°50.328 13.5 12.5 15 14.8
2009-04-21 09:39:01 51°19.346 2°50.418 13.2 12.6 16 14.5
2009-04-21 09:40:01 51°19.549 2°50.503 11.6 12.5 14 13.5
2009-04-21 09:41:01 51°19.751 2°50.59 12.3 12.6 14 14.4
2009-04-21 09:42:01 51°19.954 2°50.677 14.2 12.7 17 15.2
2009-04-21 09:43:01 51°20.157 2°50.772 12.7 12.6 14 16.3
2009-04-21 09:44:01 51°20.359 2°50.867 17.5 12.7 19 16.1
2009-04-21 09:45:01 51°20.559 2°50.985 17.4 12.8 19 18.7
2009-04-21 09:46:01 51°20.76 2°51.1 18.9 12.8 20 19.7
2009-04-21 09:47:00 51°20.959 2°51.213 19.3 13 20 21.5
2009-04-21 09:48:01 51°21.164 2°51.336 19.8 12.9 20 23.2
2009-04-21 09:49:01 51°21.366 2°51.443 13.4 12.8 14 24.7
2009-04-21 09:50:01 51°21.573 2°51.519 10.2 12.8 12 25.8
2009-04-21 09:51:01 51°21.782 2°51.596 12.2 12.9 13 26.1
2009-04-21 09:52:01 51°21.991 2°51.678 12.8 13 14 25.8
2009-04-21 09:53:01 51°22.204 2°51.733 5 12.9 6 25.4
2009-04-21 09:54:01 51°22.418 2°51.762 3.5 13 5 25.2
2009-04-21 09:55:01 51°22.633 2°51.796 2.5 12.9 4 25
2009-04-21 09:56:01 51°22.848 2°51.824 3.8 13.1 7 24.7
2009-04-21 09:57:01 51°23.061 2°51.862 4.2 12.6 7 24.9
2009-04-21 09:58:01 51°23.271 2°51.904 5.2 12.7 7 20
2009-04-21 09:59:01 51°23.48 2°51.945 4.9 12.6 6 18.4
2009-04-21 10:00:01 51°23.687 2°51.98 4.3 12.5 5 18.3
2009-04-21 10:01:01 51°23.895 2°52.008 2.6 12.6 5 18.1
2009-04-21 10:02:01 51°24.104 2°52.04 5 12.7 8 21.1
2009-04-21 10:02:59 51°24.307 2°52.078 4.9 12.7 5 20.3
2009-04-21 10:04:01 51°24.525 2°52.117 4.8 12.8 6 20.5
2009-04-21 10:05:01 51°24.736 2°52.151 5.1 12.8 6 23.7
2009-04-21 10:06:01 51°24.949 2°52.179 0.7 12.8 3 25.4
2009-04-21 10:07:01 51°25.16 2°52.175 356.7 12.7 359 27.2
2009-04-21 10:08:01 51°25.37 2°52.172 357.1 12.6 359 27.6
2009-04-21 10:09:01 51°25.579 2°52.173 359.4 12.6 -999 28
2009-04-21 10:10:01 51°25.788 2°52.176 358.1 12.6 -999 27.6
2009-04-21 10:11:01 51°25.998 2°52.179 358.3 12.6 1 28.5
2009-04-21 10:12:01 51°26.206 2°52.18 357.9 12.5 -999 28.2
2009-04-21 10:13:01 51°26.415 2°52.182 357.9 12.5 -999 28.8
2009-04-21 10:14:01 51°26.623 2°52.18 357.2 12.4 358 29.3
2009-04-21 10:15:01 51°26.832 2°52.18 358.3 12.6 1 28.7
2009-04-21 10:16:01 51°27.039 2°52.183 357.9 12.5 1 24.5
2009-04-21 10:17:01 51°27.248 2°52.182 357.5 12.6 -999 23.7
2009-04-21 10:18:01 51°27.457 2°52.182 358.6 12.7 1 22.5
2009-04-21 10:19:01 51°27.669 2°52.184 358.8 12.8 -999 22.6
2009-04-21 10:20:01 51°27.88 2°52.182 358.6 12.7 359 24.3
2009-04-21 10:21:01 51°28.083 2°52.262 26.6 12.9 28 25
2009-04-21 10:22:01 51°28.271 2°52.433 30.3 13 30 24.6
2009-04-21 10:23:01 51°28.459 2°52.602 29.9 13 29 26.8
2009-04-21 10:24:01 51°28.647 2°52.774 29.9 12.9 29 27.1
2009-04-21 10:25:01 51°28.835 2°52.946 31.5 12.9 30 27.8
2009-04-21 10:26:01 51°29.022 2°53.121 31.9 13.1 32 29.3
2009-04-21 10:27:01 51°29.208 2°53.299 32.5 13 31 31
2009-04-21 10:28:01 51°29.394 2°53.479 32 13 30 31.5
2009-04-21 10:29:01 51°29.581 2°53.655 31.4 13.1 31 32.2
2009-04-21 10:30:01 51°29.768 2°53.83 31.3 13 31 32.9
2009-04-21 10:31:01 51°29.956 2°54.006 29.7 13.1 29 33
2009-04-21 10:32:01 51°30.143 2°54.184 31.5 13.2 31 32.8
2009-04-21 10:33:01 51°30.33 2°54.369 32.2 13.2 33 35
2009-04-21 10:34:01 51°30.514 2°54.552 30.7 12.9 30 35.5
2009-04-21 10:35:01 51°30.679 2°54.721 35.2 9.2 37 33.5
2009-04-21 10:36:01 51°30.774 2°54.842 35 6.3 39 29.1
2009-04-21 10:37:01 51°30.849 2°54.938 34.7 5.5 38 24
2009-04-21 10:38:01 51°30.917 2°55.028 35.5 5.2 38 21.6
2009-04-21 10:39:01 51°30.985 2°55.113 34.2 5.2 38 20.5
2009-04-21 10:40:01 51°31.052 2°55.202 35.2 5.3 39 18.5
2009-04-21 10:41:01 51°31.113 2°55.281 34 4 40 20.1
2009-04-21 10:42:01 51°31.155 2°55.34 34.1 3.7 41 20.1
2009-04-21 10:43:01 51°31.209 2°55.415 36.1 4.9 42 19.5
2009-04-21 10:44:01 51°31.277 2°55.51 36.4 5.6 40 20.3
2009-04-21 10:45:01 51°31.351 2°55.608 36.4 6 40 19.2
2009-04-21 10:46:01 51°31.43 2°55.714 35.9 6.2 39 20.8
2009-04-21 10:47:01 51°31.513 2°55.815 30.9 6.2 35 20.3
2009-04-21 10:48:01 51°31.596 2°55.91 38.5 5.9 41 20.6
2009-04-21 10:49:01 51°31.658 2°56.009 44.5 4.8 46 19.8
2009-04-21 10:50:01 51°31.714 2°56.075 9 3.5 23 19.1
2009-04-21 10:51:01 51°31.762 2°56.088 328.7 2.6 357 19.9
2009-04-21 10:52:01 51°31.799 2°56.07 306.5 2.3 334 20.9
2009-04-21 10:53:01 51°31.833 2°56.036 304.7 2.5 326 21.6
2009-04-21 10:54:01 51°31.868 2°55.998 305.7 2.5 325 21.6
2009-04-21 10:55:01 51°31.907 2°55.952 308.8 4.4 320 21.8
2009-04-21 10:56:01 51°31.979 2°55.809 296.2 8.5 302 22.6
2009-04-21 10:57:01 51°32.054 2°55.59 295.5 10.5 300 19.6
2009-04-21 10:58:01 51°32.158 2°55.335 303.8 11.8 307 23
2009-04-21 10:59:01 51°32.297 2°55.107 311.7 11.9 315 22.1
2009-04-21 11:00:01 51°32.437 2°54.885 312.2 11.8 316 24.5
2009-04-21 11:01:01 51°32.576 2°54.659 310.7 11.9 314 25.8
2009-04-21 11:02:01 51°32.716 2°54.435 312.7 12 319 25.6
2009-04-21 11:03:01 51°32.871 2°54.233 317.8 11.9 321 27.1
2009-04-21 11:04:01 51°33.028 2°54.034 318.7 12.1 324 25.8
2009-04-21 11:05:01 51°33.181 2°53.83 315.3 11.9 320 27.4
2009-04-21 11:06:01 51°33.335 2°53.627 315.4 12 321 29.6
2009-04-21 11:07:01 51°33.485 2°53.431 315.6 10.8 321 30.7
2009-04-21 11:08:01 51°33.608 2°53.28 314.7 8.4 322 32.3
2009-04-21 11:09:01 51°33.71 2°53.152 313 7.9 320 33.3
2009-04-21 11:10:01 51°33.815 2°53.013 313 8.3 320 35
2009-04-21 11:11:01 51°33.917 2°52.873 312.2 7.3 319 35.3
2009-04-21 11:12:01 51°33.997 2°52.781 314.9 4.9 326 32.8
2009-04-21 11:13:01 51°34.053 2°52.71 303.8 4 316 33.9
2009-04-21 11:14:01 51°34.097 2°52.647 305 3.1 323 33.4
2009-04-21 11:15:01 51°34.137 2°52.604 308 2.5 331 33
2009-04-21 11:16:01 51°34.174 2°52.559 296.9 3 318 35.6
2009-04-21 11:17:01 51°34.193 2°52.533 276.2 0.8 332 37.4
2009-04-21 11:18:01 51°34.203 2°52.528 272.3 0.6 353 38.2
2009-04-21 11:19:01 51°34.211 2°52.526 270.8 0.5 11 35.1
2009-04-21 11:20:01 51°34.219 2°52.531 275.9 0.6 30 31.9
2009-04-21 11:21:01 51°34.227 2°52.541 280.3 0.7 48 35.3
2009-04-21 11:22:01 51°34.235 2°52.553 278.8 0.6 348 35.5
2009-04-21 11:23:01 51°34.231 2°52.531 223.4 1 206 35.4
2009-04-21 11:24:01 51°34.209 2°52.522 215.5 1 195 36.6
2009-04-21 11:25:01 51°34.195 2°52.522 215.7 0.8 173 37.6
2009-04-21 11:26:01 51°34.185 2°52.519 233.4 0.5 220 36.8
2009-04-21 11:27:01 51°34.182 2°52.515 249.4 0.2 306 36.6
2009-04-21 11:28:01 51°34.185 2°52.515 257.8 0.3 18 37
2009-04-21 11:29:01 51°34.191 2°52.519 269 0.5 25 37.4
2009-04-21 11:30:01 51°34.199 2°52.523 274.7 0.5 8 38
2009-04-21 11:31:01 51°34.209 2°52.523 279.2 0.8 345 36.2
2009-04-21 11:32:01 51°34.22 2°52.523 283.2 0.7 7 32.7
2009-04-21 11:33:01 51°34.23 2°52.528 287 0.7 24 35.4
2009-04-21 11:34:01 51°34.241 2°52.537 293.4 0.8 36 36.5
2009-04-21 11:35:01 51°34.251 2°52.549 296.4 0.7 28 33.1
2009-04-21 11:36:01 51°34.26 2°52.532 252.9 1.3 253 34.2
2009-04-21 11:37:01 51°34.242 2°52.523 196.1 1.2 166 37.5
2009-04-21 11:38:01 51°34.219 2°52.524 212.9 1.5 193 32.7
2009-04-21 11:39:01 51°34.202 2°52.517 221.3 0.7 197 37.5
2009-04-21 11:40:01 51°34.196 2°52.515 227.8 0.2 172 37.8
2009-04-21 11:41:01 51°34.193 2°52.518 231.7 0.1 109 37.4
2009-04-21 11:42:01 51°34.194 2°52.517 249.7 0.3 331 37.6
2009-04-21 11:43:01 51°34.201 2°52.517 268.5 0.5 40 37.3
2009-04-21 11:44:01 51°34.209 2°52.527 277.7 0.6 53 36.8
2009-04-21 11:45:01 51°34.219 2°52.539 284.1 0.8 45 31.4
2009-04-21 11:46:01 51°34.227 2°52.555 286.9 0.8 50 34.8
2009-04-21 11:47:01 51°34.236 2°52.571 287.5 0.8 48 33.4
2009-04-21 11:48:01 51°34.244 2°52.589 291.1 0.9 51 35.1
2009-04-21 11:49:01 51°34.253 2°52.607 291.5 0.9 50 35.5
2009-04-21 11:50:01 51°34.263 2°52.617 283 0.9 339 35.2
2009-04-21 11:51:01 51°34.261 2°52.589 228.2 1.1 225 35.9
2009-04-21 11:52:01 51°34.245 2°52.564 236.4 1.3 245 33.7
2009-04-21 11:53:01 51°34.235 2°52.536 226.8 1.1 225 36.1
2009-04-21 11:54:01 51°34.221 2°52.536 198.9 0.9 160 31.2
2009-04-21 11:55:01 51°34.204 2°52.548 193.2 0.9 141 37.2
2009-04-21 11:56:01 51°34.194 2°52.563 202.1 0.8 160 36.6
2009-04-21 11:57:01 51°34.185 2°52.551 246.4 0.7 277 36.2
2009-04-21 11:58:01 51°34.192 2°52.536 269.2 0.8 315 37.1
2009-04-21 11:59:01 51°34.206 2°52.521 284.6 1 340 35.8
2009-04-21 12:00:01 51°34.222 2°52.522 291 1 10 32.5
2009-04-21 12:01:01 51°34.236 2°52.529 290.2 0.9 23 37
2009-04-21 12:02:01 51°34.249 2°52.54 288.6 0.9 32 35.1
2009-04-21 12:03:01 51°34.261 2°52.554 289 0.8 36 32.7
2009-04-21 12:04:00 51°34.273 2°52.562 278.1 0.7 2 35.2
2009-04-21 12:05:01 51°34.275 2°52.542 230.4 1.2 225 33.1
2009-04-21 12:06:01 51°34.243 2°52.563 151.6 3.6 129 33.3
2009-04-21 12:07:01 51°34.185 2°52.671 146.5 6.7 135 35
2009-04-21 12:08:01 51°34.077 2°52.805 153.2 9.3 148 31
2009-04-21 12:09:01 51°33.927 2°52.941 157.3 11 152 33.8
2009-04-21 12:10:01 51°33.754 2°53.065 162.5 11.6 158 33.5
2009-04-21 12:11:01 51°33.578 2°53.185 161.2 11.6 154 31.7
2009-04-21 12:12:01 51°33.402 2°53.308 160.6 11.5 155 29.6
2009-04-21 12:13:01 51°33.226 2°53.428 164.1 11.5 159 30.1
2009-04-21 12:14:01 51°33.042 2°53.493 175.7 11.3 174 28.3
2009-04-21 12:15:01 51°32.856 2°53.513 181.7 11.1 176 27
2009-04-21 12:16:01 51°32.67 2°53.517 181.2 11.3 179 26
2009-04-21 12:17:01 51°32.483 2°53.525 181.4 11.1 178 22.4
2009-04-21 12:18:01 51°32.298 2°53.534 180 10.8 177 25.3
2009-04-21 12:19:01 51°32.115 2°53.548 180.4 11.1 175 23.5
2009-04-21 12:20:00 51°31.933 2°53.556 181.8 11 177 23.9
2009-04-21 12:21:01 51°31.745 2°53.572 180.8 11 180 22.5
2009-04-21 12:22:01 51°31.561 2°53.59 178.6 11 176 21.4
2009-04-21 12:23:01 51°31.378 2°53.601 182.9 10.8 178 19.3
2009-04-21 12:24:01 51°31.197 2°53.595 184.9 11.1 180 21.3
2009-04-21 12:25:01 51°31.016 2°53.589 185.3 10.9 180 20
2009-04-21 12:26:01 51°30.835 2°53.589 183.5 10.9 179 18.1
2009-04-21 12:27:01 51°30.651 2°53.583 184.2 11.2 183 26.1
2009-04-21 12:28:01 51°30.464 2°53.577 183 11.4 182 30.2
2009-04-21 12:29:00 51°30.279 2°53.575 182.5 11.2 182 32.3
2009-04-21 12:30:01 51°30.087 2°53.569 183.7 11.4 180 32.2
2009-04-21 12:31:01 51°29.896 2°53.564 183.5 11.6 184 33.2
2009-04-21 12:32:01 51°29.708 2°53.535 198.8 11.1 199 31.8
2009-04-21 12:33:01 51°29.539 2°53.411 208.3 11.1 205 31.1
2009-04-21 12:34:01 51°29.374 2°53.276 210.7 11.2 210 31.4
2009-04-21 12:35:01 51°29.211 2°53.135 209.8 11.2 206 29.1
2009-04-21 12:36:01 51°29.044 2°53.011 205.1 11.1 203 27.6
2009-04-21 12:37:01 51°28.869 2°52.924 199.4 11.1 196 26.7
2009-04-21 12:38:00 51°28.694 2°52.846 198.3 11.1 196 26
2009-04-21 12:39:01 51°28.512 2°52.772 197.5 11.1 194 25.4
2009-04-21 12:40:01 51°28.334 2°52.69 199.7 11 196 25.5
2009-04-21 12:41:01 51°28.157 2°52.597 200.3 11.3 198 22
2009-04-21 12:42:01 51°27.981 2°52.503 199.8 11.2 199 22.1
2009-04-21 12:43:01 51°27.802 2°52.419 198.1 11.3 195 20.9
2009-04-21 12:44:01 51°27.623 2°52.354 189.5 11.1 191 21.8
2009-04-21 12:45:01 51°27.437 2°52.354 181.6 11.3 179 22.8
2009-04-21 12:46:01 51°27.248 2°52.359 180.4 11.5 174 21
2009-04-21 12:47:01 51°27.06 2°52.36 181.4 11.4 181 22.3
2009-04-21 12:48:01 51°26.87 2°52.358 183.3 11.3 182 27
2009-04-21 12:49:01 51°26.68 2°52.356 182.4 11.3 184 27.5
2009-04-21 12:50:01 51°26.498 2°52.443 154.2 11.7 148 28
2009-04-21 12:51:01 51°26.338 2°52.623 140.9 11.9 136 27.4
2009-04-21 12:52:01 51°26.187 2°52.83 142.1 12.1 138 26.9
2009-04-21 12:53:01 51°26.033 2°53.037 143.1 12.1 139 28.5
2009-04-21 12:54:01 51°25.881 2°53.24 143.3 11.7 141 28.2
2009-04-21 12:55:01 51°25.729 2°53.438 149.4 11.8 148 26.9
2009-04-21 12:56:01 51°25.557 2°53.588 162.7 11.7 158 25.2
2009-04-21 12:57:01 51°25.37 2°53.633 180.7 11.2 177 21.8
2009-04-21 12:58:01 51°25.182 2°53.634 182.6 11.4 180 21.5
2009-04-21 12:59:01 51°24.994 2°53.637 181.4 11.4 180 20.5
2009-04-21 13:00:01 51°24.805 2°53.646 180.4 11.5 176 19.7
2009-04-21 13:01:01 51°24.623 2°53.634 179.7 10.7 175 17.3
2009-04-21 13:02:01 51°24.441 2°53.703 172.9 11.3 173 18.1
2009-04-21 13:03:01 51°24.253 2°53.721 180.3 11.4 179 20
2009-04-21 13:04:01 51°24.065 2°53.706 188.2 11.4 185 21.8
2009-04-21 13:05:01 51°23.878 2°53.668 189.9 11.3 190 21.6
2009-04-21 13:06:01 51°23.691 2°53.617 193.4 11.4 192 20.1
2009-04-21 13:07:01 51°23.506 2°53.55 195.8 11.5 192 21.4
2009-04-21 13:08:01 51°23.321 2°53.486 194 11.5 192 21.4
2009-04-21 13:09:01 51°23.135 2°53.428 192.4 11.2 191 20.7
2009-04-21 13:10:01 51°22.948 2°53.367 193.6 11.5 194 22.6
2009-04-21 13:11:01 51°22.761 2°53.3 195.4 11.5 192 23.1
2009-04-21 13:12:01 51°22.572 2°53.239 190.5 11.5 191 23.1
2009-04-21 13:13:01 51°22.381 2°53.2 189.5 11.6 187 23.5
2009-04-21 13:14:01 51°22.191 2°53.164 187.7 11.6 185 23
2009-04-21 13:15:01 51°21.998 2°53.131 186.8 11.6 182 21.6
2009-04-21 13:16:01 51°21.803 2°53.13 180.4 11.8 176 19.6
2009-04-21 13:17:01 51°21.607 2°53.137 179.4 11.7 177 17.8
2009-04-21 13:18:01 51°21.411 2°53.145 179 11.8 179 16.3
2009-04-21 13:19:01 51°21.216 2°53.149 180 11.8 179 15.5
2009-04-21 13:20:01 51°21.021 2°53.15 180.3 11.7 181 16.4
2009-04-21 13:21:01 51°20.83 2°53.129 183.7 11.3 186 16.6
2009-04-21 13:22:01 51°20.642 2°53.101 183.7 11.3 184 16.8
2009-04-21 13:23:01 51°20.452 2°53.076 182.9 11.4 186 16.8
2009-04-21 13:24:01 51°20.26 2°53.047 183.5 11.5 186 16.6
2009-04-21 13:25:01 51°20.068 2°53.019 184.3 11.6 184 16.4
2009-04-21 13:26:01 51°19.885 2°52.939 198.2 11.5 199 16.1
2009-04-21 13:27:01 51°19.702 2°52.841 186 11.4 186 15.6
2009-04-21 13:28:01 51°19.507 2°52.83 177.2 11.7 178 14.9
2009-04-21 13:29:01 51°19.31 2°52.812 181.3 12 183 14
2009-04-21 13:30:01 51°19.113 2°52.796 182.8 11.7 184 13.1
2009-04-21 13:31:01 51°18.92 2°52.761 186.2 11.8 189 12.5
2009-04-21 13:32:01 51°18.728 2°52.701 191 12 195 11.9
2009-04-21 13:33:01 51°18.536 2°52.634 190.6 11.7 192 11.6
2009-04-21 13:34:01 51°18.342 2°52.575 189.5 11.8 191 11.2
2009-04-21 13:35:01 51°18.15 2°52.51 189.5 11.9 191 11
2009-04-21 13:36:01 51°17.956 2°52.457 186.5 11.6 187 10.8
2009-04-21 13:37:01 51°17.762 2°52.434 180.2 11.8 183 10.4
2009-04-21 13:38:01 51°17.567 2°52.419 181.2 11.9 182 10.6
2009-04-21 13:39:01 51°17.37 2°52.394 182.2 11.9 184 10.5
2009-04-21 13:40:01 51°17.172 2°52.388 176.5 11.9 178 10.2
2009-04-21 13:41:01 51°16.981 2°52.424 167.9 11.4 167 9.8
2009-04-21 13:42:01 51°16.795 2°52.503 164.1 11.6 164 10.2
2009-04-21 13:43:01 51°16.607 2°52.583 164.8 11.9 168 11.2
2009-04-21 13:44:01 51°16.418 2°52.66 163.9 11.6 167 12
2009-04-21 13:45:01 51°16.228 2°52.735 163.4 11.8 165 12
2009-04-21 13:46:01 51°16.037 2°52.806 164.8 11.8 165 12
2009-04-21 13:47:01 51°15.848 2°52.891 161.7 11.6 163 11.8
2009-04-21 13:48:01 51°15.661 2°52.989 158.2 11.8 160 11.3
2009-04-21 13:49:01 51°15.478 2°53.101 156.4 11.9 157 10.9
2009-04-21 13:50:01 51°15.3 2°53.229 149.9 11.8 153 10.5
2009-04-21 13:51:01 51°15.136 2°53.392 142.4 11.6 144 9.9
2009-04-21 13:52:01 51°14.986 2°53.587 132.2 11.4 135 9.7
2009-04-21 13:53:01 51°14.863 2°53.816 128.1 11.4 126 9.7
2009-04-21 13:54:01 51°14.75 2°54.064 123.9 11.5 125 10.1
2009-04-21 13:55:01 51°14.64 2°54.32 122.2 11.6 123 10.5
2009-04-21 13:56:01 51°14.535 2°54.578 120.9 11.5 122 10.5
2009-04-21 13:57:01 51°14.434 2°54.841 118.4 11.7 122 10.5
2009-04-21 13:58:01 51°14.334 2°55.108 121.4 11.6 121 10.4
2009-04-21 13:59:01 51°14.239 2°55.295 135.6 7.8 136 10.5
2009-04-21 14:00:01 51°14.139 2°55.409 150.8 7.3 151 10.4
2009-04-21 14:01:05 51°14.026 2°55.49 156.7 6.9 156 -999
2009-04-21 14:04:05 51°13.98 2°55.522 134.1 -999 -999 -999
2009-04-21 14:05:04 51°13.697 2°55.824 127.1 4.6 126 -999
2009-04-21 14:06:04 51°13.668 2°55.912 104.9 3.1 107 -999
2009-04-21 14:07:03 51°13.662 2°55.955 105.6 0.5 102 -999